Saturday, April 25, 2015, 9:24 AM CDT
Back to Local

KHDC, Hammond, Hammond Municipal Airport

Location: Hammond, LA, United States Lat: 30.521
Local Time: 9:24 AM CDT (14:24 GMT) Lon: -90.418
Time Zone: US/Central Elev: 42 ft

Show me the last for .
Show Coded

Time T Td Feel RH Dir Speed Gust Alt SLP Vis Weather Sky Remarks
2015-04-25 08:55 79 72 83 78 200° 6 - 29.80 - 10 CLR None
2015-04-25 08:35 77 72 81 83 210° 6 - 29.81 - 10 CLR None
2015-04-25 08:15 77 72 81 83 210° 7 - 29.81 - 7 SCT006 None
2015-04-25 07:55 75 73 80 94 200° 8 - 29.81 - 5 BR SCT006 None
2015-04-25 07:35 75 73 80 94 200° 7 - 29.81 - 4 BR SCT004 None
2015-04-25 07:15 73 72 78 94 220° 6 - 29.81 - 4 BR CLR None
2015-04-25 06:55 73 70 77 88 160° 7 - 29.81 - 2 BR 1-hr Precip Total: 0.01"
2015-04-25 06:35 73 70 77 88 - Calm - 29.83 - 3 BR 1-hr Precip Total: 0.01"
2015-04-25 06:15 72 70 76 94 170° 5 - 29.82 - 1 BR SCT009 SCT015 BKN025 1-hr Precip Total: 0.01"
2015-04-25 05:55 72 70 76 94 - Calm - 29.83 - 1 BR BKN013 OVC020 None
2015-04-25 05:35 72 70 76 94 - Calm - 29.83 - 2 BR OVC017 None
2015-04-25 05:15 73 70 77 88 - Calm - 29.83 - 3 BR None
2015-04-25 04:55 73 70 77 88 - Calm - 29.83 - 1 BR OVC003 None
2015-04-25 04:35 73 72 78 94 - Calm - 29.83 - 2 BR None
2015-04-25 04:15 73 70 77 88 - Calm - 29.84 - 3 BR None
2015-04-25 03:55 73 72 78 94 - Calm - 29.84 - 5 BR SCT011 SCT016 SCT032 None
2015-04-25 03:35 73 72 78 94 - Calm - 29.82 - 4 VCTS BR SCT040 SCT046 SCT050 None
2015-04-25 03:15 75 72 79 88 - Calm - 29.85 - 5 -RA BKN044 None
2015-04-25 02:55 75 72 79 88 - Calm - 29.84 - 7 -RA SCT016 SCT025 BKN044 None
2015-04-25 02:35 75 72 79 88 - Calm - 29.85 - 7 -RA SCT016 BKN030 OVC042 None
2015-04-25 02:15 75 72 79 88 - Calm - 29.83 - 7 SCT018 BKN028 BKN038 None
2015-04-25 01:55 75 72 79 88 190° 3 - 29.81 - 7 SCT014 SCT020 BKN026 None
2015-04-25 01:35 75 72 79 88 170° 5 - 29.81 - 7 SCT008 SCT016 BKN026 None
2015-04-25 01:15 75 72 79 88 170° 7 - 29.81 - 10 SCT008 BKN029 OVC034 None
2015-04-25 00:55 75 72 79 88 150° 12 - 29.80 - 10 SCT009 SCT022 BKN032 None
2015-04-25 00:35 75 70 79 83 160° 8 - 29.82 - 10 BKN009 BKN013 OVC027 None
2015-04-25 00:15 73 70 77 88 180° 3 - 29.83 - 10 OVC009 None
2015-04-24 23:55 73 68 77 83 150° 7 - 29.82 - 10 OVC009 None
2015-04-24 23:35 73 68 77 83 160° 7 - 29.83 - 10 BKN013 OVC018 None
2015-04-24 23:15 72 68 76 88 160° 6 - 29.82 - 10 BKN018 None
2015-04-24 22:55 72 68 76 88 160° 3 - 29.82 - 10 CLR None
2015-04-24 22:35 72 68 76 88 150° 7 - 29.82 - 10 SCT022 None
2015-04-24 22:15 72 68 76 88 130° 5 - 29.83 - 10 BKN026 None
2015-04-24 21:55 72 68 76 88 140° 5 - 29.83 - 10 SCT026 SCT037 None
2015-04-24 21:35 72 68 76 88 140° 5 - 29.83 - 7 SCT007 SCT024 SCT029 None
2015-04-24 20:35 73 68 77 83 100° 5 - 29.85 - 10 SCT046 SCT060 BKN070 None
2015-04-24 20:15 73 68 77 83 120° 3 - 29.87 - 10 SCT010 OVC050 None
2015-04-24 19:35 73 70 77 88 - Calm - 29.85 - 10 OVC012 None
2015-04-24 19:15 75 70 79 83 90° 6 - 29.86 - 10 BKN012 OVC018 None
2015-04-24 18:55 75 70 79 83 - Calm - 29.88 - 10 OVC012 None
2015-04-24 18:35 75 70 79 83 - Calm - 29.87 - 10 SCT009 BKN014 OVC018 None
2015-04-24 18:15 75 70 79 83 100° 6 - 29.87 - 10 VCTS BKN008 BKN015 OVC022 None
2015-04-24 17:55 75 70 79 83 90° 5 - 29.87 - 10 OVC008 None
2015-04-24 17:35 75 70 79 83 90° 6 - 29.86 - 10 OVC010 None
2015-04-24 17:15 73 70 77 88 90° 8 - 29.85 - 10 VCTS OVC012 None
2015-04-24 16:55 73 70 77 88 100° 8 - 29.87 - 10 OVC010 None
2015-04-24 16:35 73 70 77 88 70° 6 20 29.90 - 10 -DZ OVC012 None
2015-04-24 16:15 75 68 79 78 70° 6 - 29.90 - 10 OVC012 None
2015-04-24 15:35 77 70 81 78 360° 5 - 29.96 - 10 OVC014 None
2015-04-24 15:15 77 70 81 78 130° 5 - 29.94 - 10 OVC014 None
2015-04-24 14:35 77 68 80 73 150° 8 - 29.94 - 10 OVC014 None
2015-04-24 14:15 77 68 80 73 130° 9 - 29.93 - 10 OVC014 None
2015-04-24 13:55 75 68 79 78 120° 8 - 29.94 - 10 OVC014 None
2015-04-24 13:35 75 66 78 73 110° 6 - 29.93 - 10 OVC012 None
2015-04-24 13:15 73 66 77 78 90° 7 - 29.93 - 10 OVC012 None
2015-04-24 12:55 73 66 77 78 100° 7 - 29.95 - 10 OVC012 None
2015-04-24 12:35 73 66 77 78 120° 6 9 29.96 - 10 OVC012 None
2015-04-24 12:15 73 66 77 78 110° 7 - 29.97 - 10 OVC012 None
2015-04-24 11:55 72 64 76 78 110° 7 - 30.01 - 10 OVC012 None
2015-04-24 11:35 72 66 76 83 150° 7 - 30.03 - 10 OVC012 None
2015-04-24 11:15 72 64 76 78 160° 5 - 30.03 - 10 OVC012 None
2015-04-24 10:55 72 64 76 78 150° 6 - 30.02 - 10 BKN012 None
2015-04-24 10:35 72 64 76 78 130° 7 - 30.01 - 10 SCT012 None
2015-04-24 10:15 70 63 - 77 120° 5 - 30.01 - 10 BKN014 None
2015-04-24 09:55 70 63 - 77 100° 3 - 30.01 - 10 OVC014 None

Support USWX by starting your Amazon purchase here.